Metar z połowy godziny Komunikat METAR ze strony awiacja.imgw.pl Metar G00 EPZG METAR EPZG 230830Z 26009KT 230V300 9999 SCT020 BKN031 OVC041 07/03 Q1023 =